Accueil
METAR-TAF:

METAR-TAF

Aéroports :

Aéroport de Guernesey

Guernesey,

latitude: 49-26N, longitude: 002-36W, altitude: 102 m

Observation

Le bulletin a été fait il y a 39 minutes, à 20:20 UTC
Vent 13 kt de est/sud-est
Température 6°C
Humidité 75%
Pression 1014 hPa
Visibilité 10 km ou plus
Quelques nuages à une hauteur de 1800 ft

METAR: EGJB 212020Z 12013KT 9999 FEW018 06/02 Q1014

Heure: 20:59 (20:59 UTC)

Prévision

Le bulletin a été fait il y a 57 minutes, à 20:02 UTC
Prévision valable du 21 à 21 UTC au 22 à 06 UTC
Vent 14 kt de est/sud-est
Visibilité 10 km ou plus
Quelques nuages à une hauteur de 2000 ft

TAF: EGJB 212002Z 2121/2206 12014KT 9999 FEW020

Observations et prévisions météorologiques de plus de 4000 aéroports (messages METAR et TAF).

Les stations disponibles sont représentées par des disques jaunes et rouges sur la carte.

Passer la souris dessus pour voir le nom de la station.

Cliquer dessus pour voir les observations et prévisions météorologiques.

Pour changer de carte: cliquez sur les boutons verts avec une croix noire pour zoomer, sur le bouton vert avec un tiret pour effectuer un zoom arrière, ou sur les flèches vertes pour les cartes adjacentes.


METAR-TAF: